createdAt,value
2019-04-21T00:01:41.472Z,21.10
2019-04-21T00:04:21.659Z,21.10
2019-04-21T00:06:58.799Z,21.12
2019-04-21T00:09:27.718Z,21.08
2019-04-21T00:11:55.681Z,21.05
2019-04-21T00:14:16.656Z,21.02
2019-04-21T00:16:34.696Z,20.98
2019-04-21T00:19:06.698Z,20.91
2019-04-21T00:21:34.571Z,20.87
2019-04-21T00:24:11.305Z,20.82
2019-04-21T00:26:45.818Z,20.82
2019-04-21T00:29:16.405Z,20.82
2019-04-21T00:31:39.339Z,20.78
2019-04-21T00:33:51.979Z,20.62
2019-04-21T00:36:26.007Z,20.51
2019-04-21T00:39:24.400Z,20.44
2019-04-21T00:41:36.649Z,20.38
2019-04-21T00:43:59.841Z,20.32
2019-04-21T00:46:33.676Z,20.22
2019-04-21T00:48:59.211Z,20.16
2019-04-21T00:51:40.350Z,20.17
2019-04-21T00:54:07.038Z,20.14
2019-04-21T00:56:27.475Z,20.11
2019-04-21T00:58:59.916Z,20.04
2019-04-21T01:01:28.040Z,20.04
2019-04-21T01:03:57.859Z,19.99
2019-04-21T01:06:26.845Z,19.96
2019-04-21T01:08:58.240Z,19.97
2019-04-21T01:11:23.953Z,20.03
2019-04-21T01:13:51.996Z,20.01
2019-04-21T01:16:22.365Z,19.87
2019-04-21T01:18:44.023Z,19.82
2019-04-21T01:20:54.273Z,19.79
2019-04-21T01:23:23.400Z,19.79
2019-04-21T01:26:00.618Z,19.72
2019-04-21T01:28:35.942Z,19.64
2019-04-21T01:31:08.802Z,19.57
2019-04-21T01:33:39.234Z,19.50
2019-04-21T01:36:06.944Z,19.44
2019-04-21T01:38:40.099Z,19.36
2019-04-21T01:41:06.975Z,19.33
2019-04-21T01:43:27.872Z,19.33
2019-04-21T01:45:59.631Z,19.37
2019-04-21T01:48:27.381Z,19.37
2019-04-21T01:50:55.490Z,19.39
2019-04-21T01:53:30.809Z,19.37
2019-04-21T01:55:54.397Z,19.23
2019-04-21T01:58:19.348Z,19.15
2019-04-21T02:00:48.525Z,19.00
2019-04-21T02:03:41.709Z,18.86
2019-04-21T02:05:54.955Z,18.80
2019-04-21T02:08:18.218Z,18.75
2019-04-21T02:10:55.012Z,18.62
2019-04-21T02:13:12.679Z,18.62
2019-04-21T02:15:48.968Z,18.59
2019-04-21T02:18:12.067Z,18.66
2019-04-21T02:20:32.717Z,18.71
2019-04-21T02:25:38.394Z,18.78
2019-04-21T02:28:12.314Z,18.78
2019-04-21T02:30:57.994Z,18.80
2019-04-21T02:33:23.298Z,18.77
2019-04-21T02:40:48.010Z,18.77
2019-04-21T02:43:13.497Z,18.81
2019-04-21T02:45:37.850Z,18.81
2019-04-21T02:48:08.752Z,18.79
2019-04-21T02:50:47.582Z,18.75
2019-04-21T02:53:14.027Z,18.61
2019-04-21T02:55:30.356Z,18.56
2019-04-21T02:58:06.000Z,18.56
2019-04-21T03:01:29.139Z,18.56
2019-04-21T03:05:39.708Z,18.41
2019-04-21T03:08:09.298Z,18.38
2019-04-21T03:10:39.237Z,18.19
2019-04-21T03:13:05.697Z,17.99
2019-04-21T03:15:29.541Z,17.91
2019-04-21T03:18:00.305Z,17.95
2019-04-21T03:20:23.674Z,18.03
2019-04-21T03:22:58.194Z,17.93
2019-04-21T03:25:41.562Z,17.93
2019-04-21T03:28:00.799Z,17.95
2019-04-21T03:35:46.296Z,18.04
2019-04-21T03:37:36.958Z,17.79
2019-04-21T03:40:16.766Z,17.61
2019-04-21T03:42:38.511Z,17.49
2019-04-21T03:45:15.054Z,17.53
2019-04-21T03:47:36.116Z,17.55
2019-04-21T03:50:19.094Z,17.63
2019-04-21T03:52:39.345Z,17.68
2019-04-21T03:55:12.447Z,17.73
2019-04-21T03:57:49.904Z,17.77
2019-04-21T04:00:08.961Z,17.73
2019-04-21T04:02:34.999Z,17.62
2019-04-21T04:05:07.306Z,17.52
2019-04-21T04:07:35.587Z,17.49
2019-04-21T04:10:03.967Z,17.52
2019-04-21T04:12:18.984Z,17.46
2019-04-21T04:17:16.970Z,17.53
2019-04-21T04:19:44.723Z,17.48
2019-04-21T04:22:22.853Z,17.41
2019-04-21T04:24:49.365Z,17.37
2019-04-21T04:27:35.322Z,17.50
2019-04-21T04:29:40.094Z,17.65
2019-04-21T04:32:14.577Z,17.77
2019-04-21T04:37:30.325Z,17.84
2019-04-21T04:44:46.693Z,17.77
2019-04-21T04:47:15.546Z,17.79
2019-04-21T04:49:43.431Z,17.83
2019-04-21T04:52:31.274Z,17.92
2019-04-21T04:54:47.244Z,17.99
2019-04-21T05:02:17.002Z,18.31
2019-04-21T05:04:35.460Z,18.52
2019-04-21T05:09:21.448Z,18.66
2019-04-21T05:16:57.655Z,18.91
2019-04-21T05:21:40.531Z,19.30
2019-04-21T05:24:01.259Z,19.46
2019-04-21T05:26:28.562Z,19.62
2019-04-21T05:28:56.555Z,19.87
2019-04-21T05:31:33.063Z,20.08
2019-04-21T05:34:03.064Z,20.31
2019-04-21T05:36:29.559Z,20.51
2019-04-21T05:38:53.465Z,20.62
2019-04-21T05:41:19.395Z,20.69
2019-04-21T05:43:56.446Z,20.83
2019-04-21T05:46:25.389Z,20.97
2019-04-21T05:48:52.438Z,21.07
2019-04-21T05:51:18.813Z,21.20
2019-04-21T05:53:55.747Z,21.20
2019-04-21T05:56:24.067Z,21.27
2019-04-21T05:58:57.254Z,21.44
2019-04-21T06:03:54.941Z,21.91
2019-04-21T06:06:23.984Z,21.96
2019-04-21T06:08:46.931Z,21.98
2019-04-21T06:11:16.068Z,21.95
2019-04-21T06:13:48.453Z,22.03
2019-04-21T06:16:07.522Z,22.27
2019-04-21T06:21:22.013Z,22.92
2019-04-21T06:23:35.951Z,23.20
2019-04-21T06:26:25.615Z,23.41
2019-04-21T06:28:44.072Z,23.71
2019-04-21T06:31:31.801Z,24.03
2019-04-21T06:33:35.725Z,24.34
2019-04-21T06:38:43.242Z,24.92
2019-04-21T06:40:56.440Z,25.23
2019-04-21T06:43:38.629Z,25.49
2019-04-21T06:45:54.377Z,25.63
2019-04-21T06:48:25.974Z,25.76
2019-04-21T06:50:52.618Z,25.79
2019-04-21T06:53:35.987Z,25.89
2019-04-21T06:55:43.558Z,26.19
2019-04-21T06:58:18.081Z,26.59
2019-04-21T07:00:41.308Z,26.83
2019-04-21T07:03:19.389Z,27.14
2019-04-21T07:05:50.554Z,27.51
2019-04-21T07:10:41.563Z,28.12
2019-04-21T07:13:07.682Z,28.41
2019-04-21T07:15:37.398Z,28.68
2019-04-21T07:18:09.015Z,29.00
2019-04-21T07:20:36.665Z,29.44
2019-04-21T07:23:05.111Z,29.75
2019-04-21T07:25:32.822Z,30.24
2019-04-21T07:28:07.419Z,30.74
2019-04-21T07:30:31.686Z,30.97
2019-04-21T07:33:08.940Z,31.07
2019-04-21T07:35:25.060Z,31.25
2019-04-21T07:37:53.532Z,31.62
2019-04-21T07:40:19.913Z,32.05
2019-04-21T07:42:50.003Z,32.19
2019-04-21T07:45:13.166Z,32.36
2019-04-21T07:47:50.729Z,32.69
2019-04-21T07:50:18.064Z,33.08
2019-04-21T07:52:49.265Z,33.31
2019-04-21T07:57:39.725Z,33.33
2019-04-21T08:02:40.375Z,33.97
2019-04-21T08:05:13.569Z,33.71
2019-04-21T08:07:48.028Z,33.45
2019-04-21T08:10:07.774Z,33.25
2019-04-21T08:12:30.594Z,32.93
2019-04-21T08:15:09.654Z,32.27
2019-04-21T08:17:31.839Z,32.44
2019-04-21T08:19:53.721Z,32.33
2019-04-21T08:22:32.120Z,32.34
2019-04-21T08:24:59.045Z,32.37
2019-04-21T08:27:25.737Z,32.30
2019-04-21T08:29:58.164Z,32.03
2019-04-21T08:32:27.845Z,31.54
2019-04-21T08:35:04.656Z,30.95
2019-04-21T08:37:22.703Z,30.28
2019-04-21T08:39:56.544Z,29.50
2019-04-21T08:42:18.509Z,29.08
2019-04-21T08:44:49.347Z,28.83
2019-04-21T08:47:18.392Z,28.48
2019-04-21T08:49:45.947Z,28.18
2019-04-21T08:52:26.070Z,28.01
2019-04-21T08:54:40.947Z,27.91
2019-04-21T08:57:16.753Z,27.84
2019-04-21T08:59:39.057Z,27.66
2019-04-21T09:02:08.938Z,27.57
2019-04-21T09:04:33.467Z,27.57
2019-04-21T09:09:35.334Z,27.45
2019-04-21T09:12:01.626Z,27.47
2019-04-21T09:14:33.424Z,27.40
2019-04-21T09:16:56.394Z,27.28
2019-04-21T09:19:38.751Z,27.27
2019-04-21T09:21:57.508Z,27.23
2019-04-21T09:24:40.820Z,27.19
2019-04-21T09:26:52.679Z,27.23
2019-04-21T09:29:10.832Z,27.20
2019-04-21T09:31:39.162Z,26.97
2019-04-21T09:34:04.562Z,26.77
2019-04-21T09:36:38.145Z,26.61
2019-04-21T09:39:06.635Z,26.53
2019-04-21T09:41:28.340Z,26.42
2019-04-21T09:43:57.549Z,26.36
2019-04-21T09:46:25.463Z,26.26
2019-04-21T09:48:59.281Z,26.16
2019-04-21T09:51:21.174Z,26.02
2019-04-21T09:53:56.484Z,25.95
2019-04-21T09:56:23.774Z,26.09
2019-04-21T09:58:49.539Z,26.25
2019-04-21T10:01:22.825Z,26.31
2019-04-21T10:03:48.223Z,26.31
2019-04-21T10:06:12.943Z,26.36
2019-04-21T10:08:40.241Z,26.43
2019-04-21T10:11:07.776Z,26.40
2019-04-21T10:13:36.235Z,26.27
2019-04-21T10:16:03.337Z,26.19
2019-04-21T10:18:31.642Z,26.24
2019-04-21T10:20:59.015Z,26.32
2019-04-21T10:23:25.956Z,26.39
2019-04-21T10:25:54.585Z,26.38
2019-04-21T10:28:21.676Z,26.39
2019-04-21T10:30:50.953Z,26.44
2019-04-21T10:33:18.578Z,26.48
2019-04-21T10:35:46.705Z,26.47
2019-04-21T10:38:26.128Z,26.44
2019-04-21T10:40:43.493Z,26.45
2019-04-21T10:43:12.410Z,26.46
2019-04-21T10:45:39.262Z,26.46
2019-04-21T10:48:07.320Z,26.46
2019-04-21T10:50:34.819Z,26.51
2019-04-21T10:53:02.911Z,26.54
2019-04-21T10:55:44.699Z,26.55
2019-04-21T10:57:59.974Z,26.52
2019-04-21T11:00:28.130Z,26.46
2019-04-21T11:02:56.909Z,26.35
2019-04-21T11:05:24.929Z,26.30
2019-04-21T11:08:08.080Z,26.25
2019-04-21T11:10:22.278Z,26.23
2019-04-21T11:12:50.592Z,26.14
2019-04-21T11:15:18.952Z,26.18
2019-04-21T11:17:48.315Z,26.26
2019-04-21T11:20:15.077Z,26.31
2019-04-21T11:22:42.086Z,26.35
2019-04-21T11:25:09.223Z,26.41
2019-04-21T11:27:37.465Z,26.46
2019-04-21T11:30:05.372Z,26.33
2019-04-21T11:32:35.063Z,26.28
2019-04-21T11:35:03.262Z,26.28
2019-04-21T11:37:30.528Z,26.34
2019-04-21T11:40:03.967Z,26.37
2019-04-21T11:42:27.909Z,26.42
2019-04-21T11:44:55.364Z,26.44
2019-04-21T11:47:22.749Z,26.45
2019-04-21T11:49:50.816Z,26.40
2019-04-21T11:52:18.738Z,26.38
2019-04-21T11:54:46.820Z,26.25
2019-04-21T11:57:20.491Z,26.12
2019-04-21T11:59:43.773Z,26.08
2019-04-21T12:02:11.983Z,26.14
2019-04-21T12:04:39.444Z,26.20
2019-04-21T12:07:07.222Z,26.29
2019-04-21T12:09:35.423Z,26.38
2019-04-21T12:12:03.393Z,26.44
2019-04-21T12:14:30.497Z,26.50
2019-04-21T12:16:57.390Z,26.52
2019-04-21T12:19:25.020Z,26.53
2019-04-21T12:22:01.160Z,26.45
2019-04-21T12:24:21.512Z,26.45
2019-04-21T12:26:49.663Z,26.48
2019-04-21T12:29:16.780Z,26.48
2019-04-21T12:31:43.682Z,26.49
2019-04-21T12:34:12.042Z,26.50
2019-04-21T12:36:39.960Z,26.50
2019-04-21T12:39:08.769Z,26.47
2019-04-21T12:41:38.418Z,26.47
2019-04-21T12:44:08.787Z,26.49
2019-04-21T12:46:36.014Z,26.51
2019-04-21T12:49:04.125Z,26.53
2019-04-21T12:51:31.521Z,26.53
2019-04-21T12:53:59.577Z,26.53
2019-04-21T12:56:27.529Z,26.56
2019-04-21T12:58:55.346Z,26.58
2019-04-21T13:01:23.165Z,26.44
2019-04-21T13:03:52.035Z,26.36
2019-04-21T13:06:19.455Z,26.40
2019-04-21T13:08:55.585Z,26.44
2019-04-21T13:11:15.048Z,26.49
2019-04-21T13:13:43.884Z,26.48
2019-04-21T13:16:11.609Z,26.43
2019-04-21T13:18:39.763Z,26.46
2019-04-21T13:21:07.230Z,26.50
2019-04-21T13:23:34.930Z,26.57
2019-04-21T13:26:04.335Z,26.59
2019-04-21T13:28:32.529Z,26.62
2019-04-21T13:31:00.176Z,26.64
2019-04-21T13:33:29.177Z,26.65
2019-04-21T13:35:57.237Z,26.65
2019-04-21T13:38:34.590Z,26.67
2019-04-21T13:41:10.512Z,26.62
2019-04-21T13:43:21.474Z,26.61
2019-04-21T13:45:49.825Z,26.63
2019-04-21T13:48:16.948Z,26.64
2019-04-21T13:50:45.168Z,26.66
2019-04-21T13:53:12.424Z,26.69
2019-04-21T13:55:40.780Z,26.60
2019-04-21T13:58:08.539Z,26.61
2019-04-21T14:00:35.842Z,26.63
2019-04-21T14:03:02.997Z,26.62
2019-04-21T14:05:30.664Z,26.60
2019-04-21T14:07:58.149Z,26.60
2019-04-21T14:10:25.855Z,26.64
2019-04-21T14:12:54.229Z,26.66
2019-04-21T14:15:22.196Z,26.68
2019-04-21T14:17:50.812Z,26.71
2019-04-21T14:20:19.250Z,26.68
2019-04-21T14:22:46.705Z,26.60
2019-04-21T14:25:15.134Z,26.52
2019-04-21T14:27:42.241Z,26.51
2019-04-21T14:30:10.372Z,26.54
2019-04-21T14:32:38.014Z,26.57
2019-04-21T14:35:05.353Z,26.55
2019-04-21T14:37:34.796Z,26.56
2019-04-21T14:40:08.628Z,26.53
2019-04-21T14:42:31.875Z,26.54
2019-04-21T14:45:00.752Z,26.55
2019-04-21T14:47:29.364Z,26.58
2019-04-21T14:49:57.437Z,26.57
2019-04-21T14:52:25.299Z,26.59
2019-04-21T14:54:52.319Z,26.60
2019-04-21T14:57:21.031Z,26.56
2019-04-21T14:59:49.043Z,26.57
2019-04-21T15:02:16.381Z,26.56
2019-04-21T15:04:43.941Z,26.57
2019-04-21T15:07:11.023Z,26.61
2019-04-21T15:09:39.651Z,26.63
2019-04-21T15:12:07.950Z,26.59
2019-04-21T15:14:35.985Z,26.56
2019-04-21T15:17:03.092Z,26.58
2019-04-21T15:19:30.811Z,26.53
2019-04-21T15:21:58.655Z,26.50
2019-04-21T15:24:26.625Z,26.46
2019-04-21T15:26:54.788Z,26.45
2019-04-21T15:29:22.529Z,26.43
2019-04-21T15:31:50.639Z,26.43
2019-04-21T15:34:19.550Z,26.43
2019-04-21T15:36:48.110Z,26.47
2019-04-21T15:39:16.041Z,26.45
2019-04-21T15:41:43.256Z,26.44
2019-04-21T15:44:10.565Z,26.40
2019-04-21T15:46:37.656Z,26.44
2019-04-21T15:49:05.071Z,26.51
2019-04-21T15:51:32.095Z,26.54
2019-04-21T15:53:58.950Z,26.57
2019-04-21T15:56:26.847Z,26.57
2019-04-21T15:58:54.626Z,26.50
2019-04-21T16:01:22.756Z,26.50
2019-04-21T16:03:49.824Z,26.52
2019-04-21T16:06:17.369Z,26.56
2019-04-21T16:08:47.563Z,26.59
2019-04-21T16:11:13.652Z,26.58
2019-04-21T16:13:41.667Z,26.57
2019-04-21T16:16:10.477Z,26.51
2019-04-21T16:18:38.405Z,26.50
2019-04-21T16:21:06.121Z,26.53
2019-04-21T16:23:33.279Z,26.51
2019-04-21T16:26:02.630Z,26.42
2019-04-21T16:28:31.080Z,26.38
2019-04-21T16:30:58.580Z,26.38
2019-04-21T16:33:27.061Z,26.41
2019-04-21T16:35:56.012Z,26.40
2019-04-21T16:38:23.655Z,26.41
2019-04-21T16:40:57.447Z,26.38
2019-04-21T16:43:19.992Z,26.35
2019-04-21T16:45:48.697Z,26.38
2019-04-21T16:48:16.963Z,26.33
2019-04-21T16:50:45.675Z,26.37
2019-04-21T16:53:14.276Z,26.38
2019-04-21T16:55:41.508Z,26.40
2019-04-21T16:58:14.636Z,26.38
2019-04-21T17:00:44.133Z,26.43
2019-04-21T17:03:06.374Z,26.44
2019-04-21T17:05:34.252Z,26.40
2019-04-21T17:08:03.957Z,26.38
2019-04-21T17:10:31.065Z,26.40
2019-04-21T17:12:58.005Z,26.37
2019-04-21T17:15:42.063Z,26.41
2019-04-21T17:18:18.278Z,26.41
2019-04-21T17:20:34.191Z,26.35
2019-04-21T17:22:51.695Z,26.32
2019-04-21T17:25:21.527Z,26.30
2019-04-21T17:27:47.244Z,26.32
2019-04-21T17:30:15.186Z,26.31
2019-04-21T17:32:47.664Z,26.28
2019-04-21T17:35:12.134Z,26.25
2019-04-21T17:37:40.431Z,26.23
2019-04-21T17:40:09.072Z,26.24
2019-04-21T17:42:44.899Z,26.22
2019-04-21T17:45:05.488Z,26.22
2019-04-21T17:47:43.321Z,26.18
2019-04-21T17:50:03.159Z,26.13
2019-04-21T17:52:35.293Z,26.11
2019-04-21T17:55:07.599Z,26.10
2019-04-21T17:57:48.822Z,26.11
2019-04-21T18:00:23.766Z,26.10
2019-04-21T18:02:50.187Z,26.09
2019-04-21T18:05:19.486Z,26.08
2019-04-21T18:07:46.407Z,26.03
2019-04-21T18:10:07.627Z,26.03
2019-04-21T18:12:39.756Z,26.04
2019-04-21T18:14:56.748Z,26.03
2019-04-21T18:17:18.687Z,26.02
2019-04-21T18:19:49.149Z,26.01
2019-04-21T18:22:15.206Z,26.01
2019-04-21T18:24:51.752Z,26.00
2019-04-21T18:27:11.560Z,25.98
2019-04-21T18:29:40.022Z,25.97
2019-04-21T18:32:08.442Z,25.94
2019-04-21T18:34:44.019Z,25.90
2019-04-21T18:37:12.516Z,25.85
2019-04-21T18:39:46.340Z,25.77
2019-04-21T18:42:22.646Z,25.70
2019-04-21T18:44:58.277Z,25.64
2019-04-21T18:47:19.870Z,25.58
2019-04-21T18:49:28.844Z,25.53
2019-04-21T18:52:03.986Z,25.45
2019-04-21T18:54:41.347Z,25.38
2019-04-21T18:57:04.462Z,25.28
2019-04-21T18:59:33.947Z,25.19
2019-04-21T19:01:58.578Z,25.05
2019-04-21T19:04:24.742Z,24.91
2019-04-21T19:07:02.748Z,24.83
2019-04-21T19:09:47.558Z,24.74
2019-04-21T19:12:10.189Z,24.68
2019-04-21T19:22:00.105Z,24.56
2019-04-21T19:24:29.093Z,24.56
2019-04-21T19:26:58.759Z,24.50
2019-04-21T19:32:00.013Z,24.41
2019-04-21T19:34:12.890Z,24.40
2019-04-21T19:36:33.159Z,24.34
2019-04-21T19:39:09.349Z,24.29
2019-04-21T19:41:48.620Z,24.23
2019-04-21T19:44:17.201Z,24.19
2019-04-21T19:46:42.373Z,24.16
2019-04-21T19:49:21.144Z,24.10
2019-04-21T19:51:42.830Z,24.03
2019-04-21T19:54:05.894Z,23.96
2019-04-21T19:56:25.852Z,23.96
2019-04-21T19:58:53.298Z,24.01
2019-04-21T20:01:21.383Z,24.02
2019-04-21T20:03:53.978Z,24.03
2019-04-21T20:06:33.084Z,23.90
2019-04-21T20:09:04.379Z,23.87
2019-04-21T20:11:30.580Z,23.86
2019-04-21T20:14:28.323Z,23.83
2019-04-21T20:16:33.947Z,23.79
2019-04-21T20:18:46.993Z,23.77
2019-04-21T20:21:10.127Z,23.77
2019-04-21T20:23:41.047Z,23.71
2019-04-21T20:26:08.574Z,23.67
2019-04-21T20:28:51.719Z,23.60
2019-04-21T20:31:23.598Z,23.54
2019-04-21T20:34:00.160Z,23.51
2019-04-21T20:36:21.132Z,23.45
2019-04-21T20:38:42.115Z,23.42
2019-04-21T20:41:15.945Z,23.36
2019-04-21T20:43:47.262Z,23.30
2019-04-21T20:46:12.555Z,23.23
2019-04-21T20:48:43.892Z,23.19
2019-04-21T20:51:14.591Z,23.14
2019-04-21T20:53:34.251Z,23.09
2019-04-21T20:56:05.020Z,23.03
2019-04-21T20:58:37.337Z,22.93
2019-04-21T21:01:25.435Z,22.87
2019-04-21T21:03:34.831Z,22.93
2019-04-21T21:05:58.133Z,22.97
2019-04-21T21:08:36.001Z,22.97
2019-04-21T21:10:58.716Z,22.92
2019-04-21T21:13:33.420Z,22.86
2019-04-21T21:16:10.252Z,22.81
2019-04-21T21:18:48.712Z,22.71
2019-04-21T21:20:59.129Z,22.62
2019-04-21T21:23:23.398Z,22.56
2019-04-21T21:25:57.295Z,22.54
2019-04-21T21:28:22.611Z,22.48
2019-04-21T21:30:42.893Z,22.47
2019-04-21T21:33:21.723Z,22.46
2019-04-21T21:35:41.049Z,22.42
2019-04-21T21:38:22.364Z,22.38
2019-04-21T21:40:45.492Z,22.29
2019-04-21T21:43:01.624Z,22.23
2019-04-21T21:45:30.399Z,22.19
2019-04-21T21:48:16.052Z,22.10
2019-04-21T21:50:31.596Z,22.09
2019-04-21T21:53:02.176Z,22.08
2019-04-21T21:55:21.491Z,22.08
2019-04-21T21:57:52.914Z,22.03
2019-04-21T22:00:17.907Z,22.00
2019-04-21T22:02:51.714Z,21.93
2019-04-21T22:05:23.645Z,21.89
2019-04-21T22:07:46.588Z,21.87
2019-04-21T22:10:13.597Z,21.85
2019-04-21T22:12:52.896Z,21.85
2019-04-21T22:15:17.320Z,21.83
2019-04-21T22:17:55.926Z,21.77
2019-04-21T22:20:28.491Z,21.75
2019-04-21T22:22:46.211Z,21.72
2019-04-21T22:25:12.063Z,21.66
2019-04-21T22:27:32.844Z,21.63
2019-04-21T22:30:03.931Z,21.60
2019-04-21T22:32:30.901Z,21.61
2019-04-21T22:35:01.966Z,21.58
2019-04-21T22:37:39.150Z,21.52
2019-04-21T22:40:11.329Z,21.50
2019-04-21T22:42:29.652Z,21.50
2019-04-21T22:44:54.406Z,21.52
2019-04-21T22:47:26.975Z,21.42
2019-04-21T22:49:50.676Z,21.38
2019-04-21T22:52:20.960Z,21.35
2019-04-21T22:54:47.288Z,21.34
2019-04-21T22:57:20.915Z,21.34
2019-04-21T22:59:45.394Z,21.31
2019-04-21T23:02:17.639Z,21.26
2019-04-21T23:04:46.218Z,21.18
2019-04-21T23:07:13.518Z,21.15
2019-04-21T23:09:38.053Z,21.15
2019-04-21T23:12:05.069Z,21.14
2019-04-21T23:14:45.322Z,21.12
2019-04-21T23:17:23.936Z,21.04
2019-04-21T23:19:42.235Z,20.99
2019-04-21T23:22:20.380Z,20.95
2019-04-21T23:24:59.217Z,20.94
2019-04-21T23:27:11.657Z,20.91
2019-04-21T23:29:52.651Z,20.85
2019-04-21T23:32:11.975Z,20.83
2019-04-21T23:34:26.860Z,20.81
2019-04-21T23:36:57.642Z,20.77
2019-04-21T23:39:23.628Z,20.72
2019-04-21T23:41:52.871Z,20.72
2019-04-21T23:44:20.164Z,20.66
2019-04-21T23:46:45.909Z,20.62
2019-04-21T23:49:30.632Z,20.62
2019-04-21T23:51:50.519Z,20.62
2019-04-21T23:54:13.352Z,20.57
2019-04-21T23:56:43.983Z,20.57
2019-04-21T23:59:13.203Z,20.57
